sensor_id;sensor_type;location;lat;lon;timestamp;pressure;altitude;pressure_sealevel;temperature;humidity
22653;BME280;11493;43.344;26.226;2023-02-19T00:01:20;99282.28;;;9.24;75.14
22653;BME280;11493;43.344;26.226;2023-02-19T00:03:55;99300.25;;;9.30;74.95
22653;BME280;11493;43.344;26.226;2023-02-19T00:06:25;99292.63;;;9.27;74.84
22653;BME280;11493;43.344;26.226;2023-02-19T00:08:52;99277.09;;;9.22;74.86
22653;BME280;11493;43.344;26.226;2023-02-19T00:11:20;99280.53;;;9.28;74.74
22653;BME280;11493;43.344;26.226;2023-02-19T00:13:51;99273.63;;;9.17;75.57
22653;BME280;11493;43.344;26.226;2023-02-19T00:16:20;99276.88;;;9.05;75.58
22653;BME280;11493;43.344;26.226;2023-02-19T00:18:48;99276.91;;;8.92;76.08
22653;BME280;11493;43.344;26.226;2023-02-19T00:21:16;99272.03;;;8.75;76.33
22653;BME280;11493;43.344;26.226;2023-02-19T00:23:51;99278.94;;;8.59;76.92
22653;BME280;11493;43.344;26.226;2023-02-19T00:26:18;99284.28;;;8.50;77.62
22653;BME280;11493;43.344;26.226;2023-02-19T00:28:48;99278.69;;;8.41;78.28
22653;BME280;11493;43.344;26.226;2023-02-19T00:31:24;99270.47;;;8.41;78.21
22653;BME280;11493;43.344;26.226;2023-02-19T00:33:54;99262.84;;;8.38;78.82
22653;BME280;11493;43.344;26.226;2023-02-19T00:36:22;99259.59;;;8.36;79.03
22653;BME280;11493;43.344;26.226;2023-02-19T00:38:49;99246.31;;;8.43;78.90
22653;BME280;11493;43.344;26.226;2023-02-19T00:41:18;99227.91;;;8.44;78.32
22653;BME280;11493;43.344;26.226;2023-02-19T00:43:49;99235.25;;;8.48;78.31
22653;BME280;11493;43.344;26.226;2023-02-19T00:46:18;99244.16;;;8.40;78.80
22653;BME280;11493;43.344;26.226;2023-02-19T00:48:46;99232.84;;;8.28;78.57
22653;BME280;11493;43.344;26.226;2023-02-19T00:51:14;99232.31;;;8.26;78.95
22653;BME280;11493;43.344;26.226;2023-02-19T00:53:41;99226.63;;;8.22;79.09
22653;BME280;11493;43.344;26.226;2023-02-19T00:56:09;99218.09;;;8.24;79.22
22653;BME280;11493;43.344;26.226;2023-02-19T00:58:37;99208.09;;;8.33;79.53
22653;BME280;11493;43.344;26.226;2023-02-19T01:01:04;99201.72;;;8.38;79.74
22653;BME280;11493;43.344;26.226;2023-02-19T01:03:33;99221.63;;;8.43;79.38
22653;BME280;11493;43.344;26.226;2023-02-19T01:06:02;99204.81;;;8.31;79.23
22653;BME280;11493;43.344;26.226;2023-02-19T01:08:29;99206.91;;;8.39;78.96
22653;BME280;11493;43.344;26.226;2023-02-19T01:11:00;99208.22;;;8.42;79.07
22653;BME280;11493;43.344;26.226;2023-02-19T01:13:28;99198.22;;;8.32;78.91
22653;BME280;11493;43.344;26.226;2023-02-19T01:16:07;99202.53;;;8.38;79.32
22653;BME280;11493;43.344;26.226;2023-02-19T01:18:35;99206.00;;;8.44;79.26
22653;BME280;11493;43.344;26.226;2023-02-19T01:21:07;99210.56;;;8.48;78.94
22653;BME280;11493;43.344;26.226;2023-02-19T01:23:35;99217.78;;;8.44;78.96
22653;BME280;11493;43.344;26.226;2023-02-19T01:26:07;99195.41;;;8.37;79.20
22653;BME280;11493;43.344;26.226;2023-02-19T01:28:35;99196.59;;;8.31;79.29
22653;BME280;11493;43.344;26.226;2023-02-19T01:31:03;99199.06;;;8.33;79.32
22653;BME280;11493;43.344;26.226;2023-02-19T01:33:31;99199.44;;;8.26;79.59
22653;BME280;11493;43.344;26.226;2023-02-19T01:36:01;99181.47;;;8.06;79.77
22653;BME280;11493;43.344;26.226;2023-02-19T01:38:28;99190.09;;;8.13;79.90
22653;BME280;11493;43.344;26.226;2023-02-19T01:41:01;99194.25;;;8.11;80.51
22653;BME280;11493;43.344;26.226;2023-02-19T01:43:29;99205.00;;;8.07;80.65
22653;BME280;11493;43.344;26.226;2023-02-19T01:45:57;99182.38;;;8.02;80.41
22653;BME280;11493;43.344;26.226;2023-02-19T01:48:31;99201.88;;;8.14;80.20
22653;BME280;11493;43.344;26.226;2023-02-19T01:51:07;99177.25;;;7.81;80.51
22653;BME280;11493;43.344;26.226;2023-02-19T01:53:38;99198.91;;;7.97;81.21
22653;BME280;11493;43.344;26.226;2023-02-19T01:56:06;99211.59;;;8.06;80.74
22653;BME280;11493;43.344;26.226;2023-02-19T01:58:35;99212.50;;;8.02;80.50
22653;BME280;11493;43.344;26.226;2023-02-19T02:01:05;99213.63;;;8.01;80.84
22653;BME280;11493;43.344;26.226;2023-02-19T02:03:33;99210.97;;;7.96;80.77
22653;BME280;11493;43.344;26.226;2023-02-19T02:06:12;99228.53;;;7.95;81.32
22653;BME280;11493;43.344;26.226;2023-02-19T02:08:41;99211.22;;;7.80;81.77
22653;BME280;11493;43.344;26.226;2023-02-19T02:11:27;99209.09;;;7.77;82.16
22653;BME280;11493;43.344;26.226;2023-02-19T02:13:55;99209.50;;;7.84;82.15
22653;BME280;11493;43.344;26.226;2023-02-19T02:16:27;99222.13;;;7.99;81.26
22653;BME280;11493;43.344;26.226;2023-02-19T02:24:47;99230.75;;;7.93;80.77
22653;BME280;11493;43.344;26.226;2023-02-19T02:27:37;99233.56;;;7.87;81.28
22653;BME280;11493;43.344;26.226;2023-02-19T02:35:58;99229.81;;;7.65;82.38
22653;BME280;11493;43.344;26.226;2023-02-19T02:38:28;99221.53;;;7.51;82.29
22653;BME280;11493;43.344;26.226;2023-02-19T02:40:57;99224.47;;;7.41;82.68
22653;BME280;11493;43.344;26.226;2023-02-19T02:43:24;99250.09;;;7.45;82.52
22653;BME280;11493;43.344;26.226;2023-02-19T02:45:52;99249.69;;;7.38;82.73
22653;BME280;11493;43.344;26.226;2023-02-19T02:48:33;99250.28;;;7.35;82.66
22653;BME280;11493;43.344;26.226;2023-02-19T02:51:08;99251.75;;;7.27;83.12
22653;BME280;11493;43.344;26.226;2023-02-19T02:53:54;99253.69;;;7.27;83.35
22653;BME280;11493;43.344;26.226;2023-02-19T02:56:43;99247.75;;;7.19;83.64
22653;BME280;11493;43.344;26.226;2023-02-19T02:59:15;99249.97;;;7.17;83.86
22653;BME280;11493;43.344;26.226;2023-02-19T03:01:48;99256.53;;;7.16;84.29
22653;BME280;11493;43.344;26.226;2023-02-19T03:10:12;99247.63;;;7.30;82.71
22653;BME280;11493;43.344;26.226;2023-02-19T03:12:43;99248.66;;;7.34;82.21
22653;BME280;11493;43.344;26.226;2023-02-19T03:15:34;99255.31;;;7.28;82.01
22653;BME280;11493;43.344;26.226;2023-02-19T03:18:22;99257.59;;;7.39;81.76
22653;BME280;11493;43.344;26.226;2023-02-19T03:21:08;99253.03;;;7.35;81.70
22653;BME280;11493;43.344;26.226;2023-02-19T03:23:38;99251.69;;;7.32;81.96
22653;BME280;11493;43.344;26.226;2023-02-19T03:26:24;99250.34;;;7.30;81.72
22653;BME280;11493;43.344;26.226;2023-02-19T03:28:53;99259.75;;;7.23;82.33
22653;BME280;11493;43.344;26.226;2023-02-19T03:31:42;99256.03;;;7.14;82.25
22653;BME280;11493;43.344;26.226;2023-02-19T03:34:16;99270.94;;;7.03;82.63
22653;BME280;11493;43.344;26.226;2023-02-19T03:36:51;99279.22;;;6.98;82.90
22653;BME280;11493;43.344;26.226;2023-02-19T03:39:21;99286.59;;;6.98;83.10
22653;BME280;11493;43.344;26.226;2023-02-19T03:41:57;99285.25;;;6.95;83.61
22653;BME280;11493;43.344;26.226;2023-02-19T03:47:20;99292.59;;;7.00;83.83
22653;BME280;11493;43.344;26.226;2023-02-19T03:50:16;99238.41;;;6.59;84.11
22653;BME280;11493;43.344;26.226;2023-02-19T03:53:02;99294.13;;;6.87;84.07
22653;BME280;11493;43.344;26.226;2023-02-19T03:58:27;99301.81;;;6.61;85.14
22653;BME280;11493;43.344;26.226;2023-02-19T04:01:06;99293.13;;;6.54;85.42
22653;BME280;11493;43.344;26.226;2023-02-19T04:03:50;99288.25;;;6.51;85.65
22653;BME280;11493;43.344;26.226;2023-02-19T04:06:29;99294.56;;;6.46;85.59
22653;BME280;11493;43.344;26.226;2023-02-19T04:09:00;99294.56;;;6.46;85.82
22653;BME280;11493;43.344;26.226;2023-02-19T04:11:29;99314.00;;;6.45;86.20
22653;BME280;11493;43.344;26.226;2023-02-19T04:14:21;99315.94;;;6.39;86.40
22653;BME280;11493;43.344;26.226;2023-02-19T04:16:53;99323.06;;;6.40;86.62
22653;BME280;11493;43.344;26.226;2023-02-19T04:19:24;99318.97;;;6.38;86.58
22653;BME280;11493;43.344;26.226;2023-02-19T04:21:52;99329.25;;;6.51;86.46
22653;BME280;11493;43.344;26.226;2023-02-19T04:24:42;99343.69;;;6.56;86.07
22653;BME280;11493;43.344;26.226;2023-02-19T04:27:12;99344.50;;;6.57;86.07
22653;BME280;11493;43.344;26.226;2023-02-19T04:29:39;99342.53;;;6.63;85.60
22653;BME280;11493;43.344;26.226;2023-02-19T04:32:09;99338.50;;;6.55;85.95
22653;BME280;11493;43.344;26.226;2023-02-19T04:34:36;99347.28;;;6.52;86.06
22653;BME280;11493;43.344;26.226;2023-02-19T04:37:03;99351.34;;;6.54;86.14
22653;BME280;11493;43.344;26.226;2023-02-19T04:39:30;99353.03;;;6.50;86.14
22653;BME280;11493;43.344;26.226;2023-02-19T04:41:57;99359.09;;;6.42;86.24
22653;BME280;11493;43.344;26.226;2023-02-19T04:44:25;99354.22;;;6.39;87.01
22653;BME280;11493;43.344;26.226;2023-02-19T04:46:52;99358.06;;;6.38;86.75
22653;BME280;11493;43.344;26.226;2023-02-19T04:49:19;99351.84;;;6.28;86.92
22653;BME280;11493;43.344;26.226;2023-02-19T04:51:46;99348.06;;;6.23;87.47
22653;BME280;11493;43.344;26.226;2023-02-19T04:54:13;99353.44;;;6.34;87.57
22653;BME280;11493;43.344;26.226;2023-02-19T04:56:39;99354.25;;;6.34;87.38
22653;BME280;11493;43.344;26.226;2023-02-19T04:59:06;99363.28;;;6.64;87.67
22653;BME280;11493;43.344;26.226;2023-02-19T05:01:33;99351.03;;;6.85;86.65
22653;BME280;11493;43.344;26.226;2023-02-19T05:04:00;99361.91;;;7.14;85.66
22653;BME280;11493;43.344;26.226;2023-02-19T05:06:27;99352.19;;;7.27;85.04
22653;BME280;11493;43.344;26.226;2023-02-19T05:08:54;99348.06;;;7.48;83.57
22653;BME280;11493;43.344;26.226;2023-02-19T05:11:21;99362.38;;;7.82;82.53
22653;BME280;11493;43.344;26.226;2023-02-19T05:13:49;99347.06;;;8.00;81.57
22653;BME280;11493;43.344;26.226;2023-02-19T05:16:16;99355.59;;;8.31;80.00
22653;BME280;11493;43.344;26.226;2023-02-19T05:18:44;99351.91;;;8.41;79.31
22653;BME280;11493;43.344;26.226;2023-02-19T05:21:12;99362.78;;;8.46;78.86
22653;BME280;11493;43.344;26.226;2023-02-19T05:23:40;99350.63;;;8.52;78.59
22653;BME280;11493;43.344;26.226;2023-02-19T05:26:11;99358.25;;;8.55;78.80
22653;BME280;11493;43.344;26.226;2023-02-19T05:28:38;99363.03;;;8.63;78.37
22653;BME280;11493;43.344;26.226;2023-02-19T05:31:06;99363.44;;;8.56;77.66
22653;BME280;11493;43.344;26.226;2023-02-19T05:33:34;99376.34;;;8.56;78.06
22653;BME280;11493;43.344;26.226;2023-02-19T05:36:11;99385.50;;;8.65;77.60
22653;BME280;11493;43.344;26.226;2023-02-19T05:38:39;99396.09;;;8.72;77.83
22653;BME280;11493;43.344;26.226;2023-02-19T05:41:11;99389.91;;;8.80;77.66
22653;BME280;11493;43.344;26.226;2023-02-19T05:43:40;99396.63;;;8.87;78.03
22653;BME280;11493;43.344;26.226;2023-02-19T05:46:08;99384.84;;;8.87;77.85
22653;BME280;11493;43.344;26.226;2023-02-19T05:48:36;99403.94;;;8.92;78.17
22653;BME280;11493;43.344;26.226;2023-02-19T05:51:04;99413.59;;;9.03;77.83
22653;BME280;11493;43.344;26.226;2023-02-19T05:53:32;99420.03;;;9.12;77.95
22653;BME280;11493;43.344;26.226;2023-02-19T05:55:59;99408.53;;;9.10;77.71
22653;BME280;11493;43.344;26.226;2023-02-19T05:58:26;99419.53;;;9.24;77.93
22653;BME280;11493;43.344;26.226;2023-02-19T06:00:54;99431.44;;;9.33;77.58
22653;BME280;11493;43.344;26.226;2023-02-19T06:03:22;99436.34;;;9.36;78.05
22653;BME280;11493;43.344;26.226;2023-02-19T06:05:49;99444.47;;;9.41;78.10
22653;BME280;11493;43.344;26.226;2023-02-19T06:08:15;99425.66;;;9.35;77.63
22653;BME280;11493;43.344;26.226;2023-02-19T06:10:42;99445.81;;;9.58;77.45
22653;BME280;11493;43.344;26.226;2023-02-19T06:13:10;99450.88;;;9.64;77.04
22653;BME280;11493;43.344;26.226;2023-02-19T06:15:37;99453.31;;;9.79;76.38
22653;BME280;11493;43.344;26.226;2023-02-19T06:18:04;99451.97;;;9.77;76.66
22653;BME280;11493;43.344;26.226;2023-02-19T06:20:31;99439.97;;;9.86;76.33
22653;BME280;11493;43.344;26.226;2023-02-19T06:22:58;99428.84;;;10.05;74.67
22653;BME280;11493;43.344;26.226;2023-02-19T06:25:25;99434.00;;;10.34;73.29
22653;BME280;11493;43.344;26.226;2023-02-19T06:27:52;99438.41;;;10.44;73.17
22653;BME280;11493;43.344;26.226;2023-02-19T06:30:19;99430.03;;;10.49;72.87
22653;BME280;11493;43.344;26.226;2023-02-19T06:32:50;99437.81;;;10.69;72.27
22653;BME280;11493;43.344;26.226;2023-02-19T06:35:18;99425.66;;;10.70;72.44
22653;BME280;11493;43.344;26.226;2023-02-19T06:37:46;99436.06;;;10.73;72.92
22653;BME280;11493;43.344;26.226;2023-02-19T06:40:17;99435.06;;;10.69;72.44
22653;BME280;11493;43.344;26.226;2023-02-19T06:42:44;99432.66;;;10.99;71.76
22653;BME280;11493;43.344;26.226;2023-02-19T06:45:11;99426.91;;;11.09;72.30
22653;BME280;11493;43.344;26.226;2023-02-19T06:47:38;99431.41;;;11.05;71.90
22653;BME280;11493;43.344;26.226;2023-02-19T06:50:05;99442.59;;;11.08;71.74
22653;BME280;11493;43.344;26.226;2023-02-19T06:52:32;99428.84;;;11.17;71.83
22653;BME280;11493;43.344;26.226;2023-02-19T06:54:58;99432.00;;;11.33;72.23
22653;BME280;11493;43.344;26.226;2023-02-19T06:57:25;99430.75;;;11.39;71.66
22653;BME280;11493;43.344;26.226;2023-02-19T06:59:52;99425.41;;;11.42;71.79
22653;BME280;11493;43.344;26.226;2023-02-19T07:02:19;99437.94;;;11.57;71.02
22653;BME280;11493;43.344;26.226;2023-02-19T07:04:46;99437.84;;;11.71;71.11
22653;BME280;11493;43.344;26.226;2023-02-19T07:07:13;99431.13;;;11.55;71.78
22653;BME280;11493;43.344;26.226;2023-02-19T07:09:39;99411.34;;;11.52;71.27
22653;BME280;11493;43.344;26.226;2023-02-19T07:12:06;99420.16;;;11.72;70.72
22653;BME280;11493;43.344;26.226;2023-02-19T07:14:33;99413.41;;;11.78;71.17
22653;BME280;11493;43.344;26.226;2023-02-19T07:17:00;99427.53;;;11.85;71.02
22653;BME280;11493;43.344;26.226;2023-02-19T07:19:27;99420.72;;;12.00;70.41
22653;BME280;11493;43.344;26.226;2023-02-19T07:21:54;99440.53;;;12.10;70.17
22653;BME280;11493;43.344;26.226;2023-02-19T07:24:21;99436.81;;;12.15;70.21
22653;BME280;11493;43.344;26.226;2023-02-19T07:26:49;99439.56;;;12.15;69.93
22653;BME280;11493;43.344;26.226;2023-02-19T07:29:15;99442.31;;;12.15;69.96
22653;BME280;11493;43.344;26.226;2023-02-19T07:31:42;99443.16;;;12.33;69.30
22653;BME280;11493;43.344;26.226;2023-02-19T07:34:10;99449.50;;;12.33;69.55
22653;BME280;11493;43.344;26.226;2023-02-19T07:36:37;99434.91;;;12.41;68.68
22653;BME280;11493;43.344;26.226;2023-02-19T07:39:04;99442.84;;;12.34;69.35
22653;BME280;11493;43.344;26.226;2023-02-19T07:41:31;99446.25;;;12.31;69.55
22653;BME280;11493;43.344;26.226;2023-02-19T07:43:58;99427.09;;;12.26;69.22
22653;BME280;11493;43.344;26.226;2023-02-19T07:46:25;99438.31;;;12.38;69.31
22653;BME280;11493;43.344;26.226;2023-02-19T07:48:52;99424.34;;;12.35;69.08
22653;BME280;11493;43.344;26.226;2023-02-19T07:51:19;99427.59;;;12.45;69.40
22653;BME280;11493;43.344;26.226;2023-02-19T07:53:48;99417.69;;;12.44;68.64
22653;BME280;11493;43.344;26.226;2023-02-19T07:56:18;99417.53;;;12.49;69.12
22653;BME280;11493;43.344;26.226;2023-02-19T07:58:45;99419.47;;;12.58;69.13
22653;BME280;11493;43.344;26.226;2023-02-19T08:01:18;99427.06;;;12.78;69.42
22653;BME280;11493;43.344;26.226;2023-02-19T08:04:05;99419.91;;;12.86;69.02
22653;BME280;11493;43.344;26.226;2023-02-19T08:06:32;99426.72;;;12.88;67.82
22653;BME280;11493;43.344;26.226;2023-02-19T08:08:59;99437.91;;;12.92;68.27
22653;BME280;11493;43.344;26.226;2023-02-19T08:11:26;99450.25;;;13.03;68.46
22653;BME280;11493;43.344;26.226;2023-02-19T08:14:11;99424.59;;;13.02;67.79
22653;BME280;11493;43.344;26.226;2023-02-19T08:16:38;99447.16;;;13.13;67.94
22653;BME280;11493;43.344;26.226;2023-02-19T08:19:09;99425.06;;;13.04;67.36
22653;BME280;11493;43.344;26.226;2023-02-19T08:21:36;99444.41;;;13.22;68.06
22653;BME280;11493;43.344;26.226;2023-02-19T08:24:03;99431.94;;;13.45;67.46
22653;BME280;11493;43.344;26.226;2023-02-19T08:26:31;99447.00;;;13.56;67.14
22653;BME280;11493;43.344;26.226;2023-02-19T08:28:58;99446.16;;;13.64;67.48
22653;BME280;11493;43.344;26.226;2023-02-19T08:31:24;99461.78;;;13.60;66.39
22653;BME280;11493;43.344;26.226;2023-02-19T08:33:53;99454.81;;;13.54;66.92
22653;BME280;11493;43.344;26.226;2023-02-19T08:36:20;99465.44;;;13.81;67.30
22653;BME280;11493;43.344;26.226;2023-02-19T08:38:47;99454.69;;;13.89;66.90
22653;BME280;11493;43.344;26.226;2023-02-19T08:41:14;99461.69;;;13.86;65.96
22653;BME280;11493;43.344;26.226;2023-02-19T08:43:42;99468.69;;;13.84;65.99
22653;BME280;11493;43.344;26.226;2023-02-19T08:46:10;99458.59;;;13.88;65.61
22653;BME280;11493;43.344;26.226;2023-02-19T08:48:39;99460.03;;;13.94;65.68
22653;BME280;11493;43.344;26.226;2023-02-19T08:51:08;99463.75;;;13.98;65.37
22653;BME280;11493;43.344;26.226;2023-02-19T08:53:37;99451.19;;;14.21;64.22
22653;BME280;11493;43.344;26.226;2023-02-19T08:56:09;99447.63;;;14.21;64.62
22653;BME280;11493;43.344;26.226;2023-02-19T08:58:37;99442.78;;;14.38;63.62
22653;BME280;11493;43.344;26.226;2023-02-19T09:01:13;99440.78;;;14.48;63.73
22653;BME280;11493;43.344;26.226;2023-02-19T09:03:41;99433.69;;;14.59;63.41
22653;BME280;11493;43.344;26.226;2023-02-19T09:06:17;99428.69;;;14.73;63.53
22653;BME280;11493;43.344;26.226;2023-02-19T09:08:44;99423.16;;;14.73;62.29
22653;BME280;11493;43.344;26.226;2023-02-19T09:11:11;99443.75;;;14.96;61.73
22653;BME280;11493;43.344;26.226;2023-02-19T09:13:39;99440.50;;;14.82;62.40
22653;BME280;11493;43.344;26.226;2023-02-19T09:16:06;99443.28;;;14.94;62.21
22653;BME280;11493;43.344;26.226;2023-02-19T09:18:33;99436.38;;;15.00;61.71
22653;BME280;11493;43.344;26.226;2023-02-19T09:21:02;99444.72;;;15.12;60.95
22653;BME280;11493;43.344;26.226;2023-02-19T09:23:34;99442.66;;;15.09;60.64
22653;BME280;11493;43.344;26.226;2023-02-19T09:26:02;99433.09;;;14.86;60.97
22653;BME280;11493;43.344;26.226;2023-02-19T09:28:32;99437.53;;;14.99;61.57
22653;BME280;11493;43.344;26.226;2023-02-19T09:31:07;99427.88;;;15.18;60.85
22653;BME280;11493;43.344;26.226;2023-02-19T09:33:34;99425.22;;;15.09;60.97
22653;BME280;11493;43.344;26.226;2023-02-19T09:36:02;99420.38;;;15.18;60.44
22653;BME280;11493;43.344;26.226;2023-02-19T09:38:29;99425.63;;;15.44;60.01
22653;BME280;11493;43.344;26.226;2023-02-19T09:40:57;99423.78;;;15.48;59.52
22653;BME280;11493;43.344;26.226;2023-02-19T09:43:26;99433.50;;;15.54;59.68
22653;BME280;11493;43.344;26.226;2023-02-19T09:46:25;99417.78;;;15.46;59.82
22653;BME280;11493;43.344;26.226;2023-02-19T09:48:49;99420.91;;;15.44;59.96
22653;BME280;11493;43.344;26.226;2023-02-19T09:51:17;99412.91;;;15.43;60.75
22653;BME280;11493;43.344;26.226;2023-02-19T09:53:46;99410.66;;;15.57;60.43
22653;BME280;11493;43.344;26.226;2023-02-19T09:56:15;99399.66;;;15.61;59.58
22653;BME280;11493;43.344;26.226;2023-02-19T09:58:53;99404.03;;;15.62;59.54
22653;BME280;11493;43.344;26.226;2023-02-19T10:01:25;99410.84;;;15.64;60.41
22653;BME280;11493;43.344;26.226;2023-02-19T10:03:53;99391.91;;;15.54;60.40
22653;BME280;11493;43.344;26.226;2023-02-19T10:06:22;99385.31;;;15.71;60.61
22653;BME280;11493;43.344;26.226;2023-02-19T10:11:36;99381.03;;;15.73;59.79
22653;BME280;11493;43.344;26.226;2023-02-19T10:14:06;99379.66;;;15.80;59.78
22653;BME280;11493;43.344;26.226;2023-02-19T10:16:38;99361.03;;;15.80;59.04
22653;BME280;11493;43.344;26.226;2023-02-19T10:19:12;99357.91;;;15.82;59.98
22653;BME280;11493;43.344;26.226;2023-02-19T10:21:40;99356.97;;;16.02;58.96
22653;BME280;11493;43.344;26.226;2023-02-19T10:24:12;99347.47;;;16.03;59.97
22653;BME280;11493;43.344;26.226;2023-02-19T10:26:42;99346.75;;;16.18;59.38
22653;BME280;11493;43.344;26.226;2023-02-19T10:29:09;99345.59;;;16.19;59.50
22653;BME280;11493;43.344;26.226;2023-02-19T10:31:36;99357.25;;;16.25;58.18
22653;BME280;11493;43.344;26.226;2023-02-19T10:34:03;99339.13;;;16.15;59.07
22653;BME280;11493;43.344;26.226;2023-02-19T10:36:35;99325.47;;;16.10;58.05
22653;BME280;11493;43.344;26.226;2023-02-19T10:39:31;99352.38;;;16.34;58.65
22653;BME280;11493;43.344;26.226;2023-02-19T10:42:01;99331.56;;;16.28;58.08
22653;BME280;11493;43.344;26.226;2023-02-19T10:44:34;99331.50;;;16.40;56.90
22653;BME280;11493;43.344;26.226;2023-02-19T10:47:04;99337.81;;;16.53;56.79
22653;BME280;11493;43.344;26.226;2023-02-19T10:49:34;99344.94;;;16.66;56.23
22653;BME280;11493;43.344;26.226;2023-02-19T10:52:25;99326.59;;;16.49;55.92
22653;BME280;11493;43.344;26.226;2023-02-19T10:54:56;99343.44;;;16.56;56.66
22653;BME280;11493;43.344;26.226;2023-02-19T10:57:26;99341.94;;;16.59;55.49
22653;BME280;11493;43.344;26.226;2023-02-19T11:00:19;99283.81;;;16.22;56.10
22653;BME280;11493;43.344;26.226;2023-02-19T11:02:48;99332.44;;;16.60;56.44
22653;BME280;11493;43.344;26.226;2023-02-19T11:05:19;99328.75;;;16.56;56.81
22653;BME280;11493;43.344;26.226;2023-02-19T11:07:54;99323.56;;;16.82;55.85
22653;BME280;11493;43.344;26.226;2023-02-19T11:13:02;99320.91;;;17.01;54.33
22653;BME280;11493;43.344;26.226;2023-02-19T11:15:33;99311.47;;;17.06;54.79
22653;BME280;11493;43.344;26.226;2023-02-19T11:18:26;99307.69;;;17.14;54.11
22653;BME280;11493;43.344;26.226;2023-02-19T11:21:03;99314.53;;;17.01;54.84
22653;BME280;11493;43.344;26.226;2023-02-19T11:23:43;99305.47;;;17.04;54.85
22653;BME280;11493;43.344;26.226;2023-02-19T11:26:25;99294.16;;;17.13;54.61
22653;BME280;11493;43.344;26.226;2023-02-19T11:28:59;99289.03;;;17.15;54.70
22653;BME280;11493;43.344;26.226;2023-02-19T11:31:31;99290.97;;;17.46;53.66
22653;BME280;11493;43.344;26.226;2023-02-19T11:36:41;99290.72;;;17.35;54.28
22653;BME280;11493;43.344;26.226;2023-02-19T11:50:29;99284.94;;;17.59;53.92
22653;BME280;11493;43.344;26.226;2023-02-19T11:58:58;99281.50;;;17.15;52.72
22653;BME280;11493;43.344;26.226;2023-02-19T12:01:42;99274.19;;;17.07;52.40
22653;BME280;11493;43.344;26.226;2023-02-19T12:18:21;99202.00;;;16.79;52.56
22653;BME280;11493;43.344;26.226;2023-02-19T12:24:01;99258.31;;;17.42;51.86
22653;BME280;11493;43.344;26.226;2023-02-19T12:45:59;99234.50;;;17.10;51.15
22653;BME280;11493;43.344;26.226;2023-02-19T12:48:36;99233.19;;;17.04;51.75
22653;BME280;11493;43.344;26.226;2023-02-19T12:54:19;99241.22;;;17.09;51.72
22653;BME280;11493;43.344;26.226;2023-02-19T13:02:19;99219.38;;;17.42;51.10
22653;BME280;11493;43.344;26.226;2023-02-19T13:07:27;99203.53;;;17.27;50.37
22653;BME280;11493;43.344;26.226;2023-02-19T13:10:02;99205.50;;;17.27;50.65
22653;BME280;11493;43.344;26.226;2023-02-19T13:12:35;99198.91;;;17.16;50.97
22653;BME280;11493;43.344;26.226;2023-02-19T13:15:16;99200.06;;;17.15;51.52
22653;BME280;11493;43.344;26.226;2023-02-19T13:17:48;99203.34;;;17.01;51.30
22653;BME280;11493;43.344;26.226;2023-02-19T13:26:34;99206.41;;;16.96;51.48
22653;BME280;11493;43.344;26.226;2023-02-19T13:37:52;99195.91;;;16.89;52.45
22653;BME280;11493;43.344;26.226;2023-02-19T13:40:29;99185.88;;;16.85;52.14
22653;BME280;11493;43.344;26.226;2023-02-19T13:42:59;99171.19;;;16.84;52.44
22653;BME280;11493;43.344;26.226;2023-02-19T13:48:24;99175.91;;;16.99;51.97
22653;BME280;11493;43.344;26.226;2023-02-19T13:53:58;99181.09;;;17.01;51.94
22653;BME280;11493;43.344;26.226;2023-02-19T14:07:33;99167.16;;;17.17;52.89
22653;BME280;11493;43.344;26.226;2023-02-19T14:10:02;99177.91;;;17.18;52.82
22653;BME280;11493;43.344;26.226;2023-02-19T14:12:34;99180.16;;;17.13;52.66
22653;BME280;11493;43.344;26.226;2023-02-19T14:18:16;99173.59;;;17.21;52.54
22653;BME280;11493;43.344;26.226;2023-02-19T14:21:05;99177.09;;;17.18;52.65
22653;BME280;11493;43.344;26.226;2023-02-19T14:23:32;99183.75;;;17.13;53.88
22653;BME280;11493;43.344;26.226;2023-02-19T14:26:00;99184.00;;;17.24;53.21
22653;BME280;11493;43.344;26.226;2023-02-19T14:28:43;99183.38;;;17.15;53.44
22653;BME280;11493;43.344;26.226;2023-02-19T14:31:15;99175.31;;;17.09;54.44
22653;BME280;11493;43.344;26.226;2023-02-19T14:34:32;99172.94;;;17.08;54.56
22653;BME280;11493;43.344;26.226;2023-02-19T14:39:20;99174.81;;;17.04;53.61
22653;BME280;11493;43.344;26.226;2023-02-19T14:44:28;99169.19;;;17.00;53.57
22653;BME280;11493;43.344;26.226;2023-02-19T14:47:04;99167.06;;;16.78;53.85
22653;BME280;11493;43.344;26.226;2023-02-19T14:49:42;99169.13;;;16.65;53.78
22653;BME280;11493;43.344;26.226;2023-02-19T14:52:24;99162.84;;;16.68;53.69
22653;BME280;11493;43.344;26.226;2023-02-19T14:54:58;99167.59;;;16.68;53.89
22653;BME280;11493;43.344;26.226;2023-02-19T14:57:28;99161.94;;;16.64;53.72
22653;BME280;11493;43.344;26.226;2023-02-19T15:00:13;99158.44;;;16.52;54.15
22653;BME280;11493;43.344;26.226;2023-02-19T15:02:45;99151.78;;;16.40;54.32
22653;BME280;11493;43.344;26.226;2023-02-19T15:05:17;99152.34;;;16.30;54.50
22653;BME280;11493;43.344;26.226;2023-02-19T15:07:44;99160.13;;;16.40;54.56
22653;BME280;11493;43.344;26.226;2023-02-19T15:10:12;99146.34;;;16.28;55.02
22653;BME280;11493;43.344;26.226;2023-02-19T15:12:46;99152.81;;;16.32;55.45
22653;BME280;11493;43.344;26.226;2023-02-19T15:15:21;99144.56;;;16.20;56.19
22653;BME280;11493;43.344;26.226;2023-02-19T15:17:51;99143.38;;;16.21;56.63
22653;BME280;11493;43.344;26.226;2023-02-19T15:20:22;99151.63;;;16.18;56.75
22653;BME280;11493;43.344;26.226;2023-02-19T15:22:52;99146.94;;;16.06;56.98
22653;BME280;11493;43.344;26.226;2023-02-19T15:25:21;99144.34;;;15.97;57.40
22653;BME280;11493;43.344;26.226;2023-02-19T15:27:49;99132.03;;;15.83;57.73
22653;BME280;11493;43.344;26.226;2023-02-19T15:30:24;99126.19;;;15.72;57.91
22653;BME280;11493;43.344;26.226;2023-02-19T15:32:54;99139.34;;;15.75;58.12